Time;durP1;ratioP1;P1;durP2;ratioP2;P2;SDS_P1;SDS_P2;PMS_P1;PMS_P2;Temp;Humidity;BMP_temperature;BMP_pressure;BME280_temperature;BME280_humidity;BME280_pressure;Samples;Min_cycle;Max_cycle;Signal;HPM_P1;HPM_P2
2022/11/14 00:00:35;;;;;;;2.60;2.20;;;;;;;;;;5114802;28;20081;-24
2022/11/14 00:03:03;;;;;;;2.15;2.03;;;;;;;;;;5114705;28;20345;-25
2022/11/14 00:05:29;;;;;;;2.25;2.05;;;;;;;;;;5114704;28;20032;-24
2022/11/14 00:07:55;;;;;;;1.90;1.70;;;;;;;;;;5114698;28;20020;-24
2022/11/14 00:10:21;;;;;;;2.78;2.47;;;;;;;;;;5114641;28;20031;-25
2022/11/14 00:12:47;;;;;;;2.40;2.20;;;;;;;;;;5114620;28;20027;-24
2022/11/14 00:15:14;;;;;;;3.33;2.47;;;;;;;;;;5114548;28;20347;-24
2022/11/14 00:17:40;;;;;;;2.90;2.60;;;;;;;;;;5114868;28;20028;-29
2022/11/14 00:20:08;;;;;;;2.67;2.42;;;;;;;;;;5114872;28;20051;-24
2022/11/14 00:22:34;;;;;;;2.38;2.17;;;;;;;;;;5114563;28;20106;-26
2022/11/14 00:25:00;;;;;;;2.90;2.50;;;;;;;;;;5117341;28;20031;-25
2022/11/14 00:27:26;;;;;;;2.45;2.25;;;;;;;;;;5118523;28;20042;-25
2022/11/14 00:29:52;;;;;;;2.60;2.40;;;;;;;;;;5118464;28;20501;-28
2022/11/14 00:32:19;;;;;;;2.90;2.60;;;;;;;;;;5118083;28;20020;-27
2022/11/14 00:34:45;;;;;;;2.35;2.15;;;;;;;;;;5117187;28;20036;-24
2022/11/14 00:37:11;;;;;;;2.15;1.95;;;;;;;;;;5117963;28;20050;-24
2022/11/14 00:39:37;;;;;;;2.15;1.67;;;;;;;;;;5118285;28;20077;-24
2022/11/14 00:42:03;;;;;;;3.85;2.00;;;;;;;;;;5118993;28;20129;-24
2022/11/14 00:44:29;;;;;;;2.85;2.65;;;;;;;;;;5117899;28;20498;-26
2022/11/14 00:46:56;;;;;;;2.60;1.95;;;;;;;;;;5118126;28;20027;-24
2022/11/14 00:49:22;;;;;;;3.03;2.67;;;;;;;;;;5117847;28;20055;-30
2022/11/14 00:51:48;;;;;;;2.65;2.42;;;;;;;;;;5117972;28;20035;-24
2022/11/14 00:54:14;;;;;;;2.85;2.35;;;;;;;;;;5116805;28;20446;-25
2022/11/14 00:56:40;;;;;;;2.33;2.13;;;;;;;;;;5117596;28;20023;-25
2022/11/14 00:59:06;;;;;;;2.90;2.17;;;;;;;;;;5117925;28;20057;-26
2022/11/14 01:01:33;;;;;;;2.20;2.00;;;;;;;;;;5116699;28;20019;-24
2022/11/14 01:03:59;;;;;;;2.65;2.10;;;;;;;;;;5117470;28;20051;-26
2022/11/14 01:06:25;;;;;;;3.22;3.00;;;;;;;;;;5117458;28;20035;-27
2022/11/14 01:08:51;;;;;;;2.20;2.00;;;;;;;;;;5117453;28;20103;-24
2022/11/14 01:11:19;;;;;;;2.13;1.92;;;;;;;;;;5117632;28;20039;-24
2022/11/14 01:13:45;;;;;;;2.95;2.65;;;;;;;;;;5116367;28;20051;-26
2022/11/14 01:16:12;;;;;;;2.40;2.20;;;;;;;;;;5117241;28;20039;-24
2022/11/14 01:18:39;;;;;;;2.83;2.63;;;;;;;;;;5117536;28;20076;-25
2022/11/14 01:21:06;;;;;;;2.45;2.25;;;;;;;;;;5117491;28;20023;-24
2022/11/14 01:23:32;;;;;;;2.42;2.15;;;;;;;;;;5117207;28;20096;-24
2022/11/14 01:26:02;;;;;;;2.45;2.25;;;;;;;;;;5117426;28;20024;-27
2022/11/14 01:28:28;;;;;;;2.95;2.58;;;;;;;;;;5117908;28;20469;-29
2022/11/14 01:30:55;;;;;;;2.30;2.10;;;;;;;;;;5117063;28;20051;-24
2022/11/14 01:33:21;;;;;;;2.55;2.35;;;;;;;;;;5115973;28;20348;-25
2022/11/14 01:35:47;;;;;;;2.55;2.33;;;;;;;;;;5116864;28;20032;-24
2022/11/14 01:38:15;;;;;;;2.42;1.90;;;;;;;;;;5116881;28;20019;-25
2022/11/14 01:40:42;;;;;;;2.40;2.17;;;;;;;;;;5117098;28;20032;-24
2022/11/14 01:43:21;;;;;;;2.60;2.40;;;;;;;;;;5116734;28;20038;-24
2022/11/14 01:45:59;;;;;;;2.90;2.47;;;;;;;;;;5116791;28;20058;-25
2022/11/14 01:48:35;;;;;;;3.10;2.22;;;;;;;;;;5117001;28;20358;-25
2022/11/14 01:51:20;;;;;;;2.70;2.50;;;;;;;;;;5116643;28;20409;-25
2022/11/14 01:53:47;;;;;;;2.58;2.38;;;;;;;;;;5116549;28;20027;-25
2022/11/14 01:56:16;;;;;;;2.58;2.28;;;;;;;;;;5116711;28;20034;-24
2022/11/14 01:58:45;;;;;;;2.95;2.50;;;;;;;;;;5115553;28;20024;-25
2022/11/14 02:01:12;;;;;;;2.30;2.10;;;;;;;;;;5116447;28;20107;-24
2022/11/14 02:03:39;;;;;;;2.38;2.17;;;;;;;;;;5116312;28;20027;-24
2022/11/14 02:06:07;;;;;;;2.08;1.92;;;;;;;;;;5116333;28;20028;-24
2022/11/14 02:08:33;;;;;;;2.58;2.38;;;;;;;;;;5115323;28;20043;-25
2022/11/14 02:11:00;;;;;;;2.78;2.22;;;;;;;;;;5116475;28;20031;-24
2022/11/14 02:13:26;;;;;;;2.83;2.50;;;;;;;;;;5116372;28;20054;-27
2022/11/14 02:15:52;;;;;;;2.58;2.38;;;;;;;;;;5116013;28;20123;-24
2022/11/14 02:18:18;;;;;;;2.78;2.55;;;;;;;;;;5115139;28;20470;-24
2022/11/14 02:20:44;;;;;;;3.33;2.88;;;;;;;;;;5115108;28;20065;-24
2022/11/14 02:23:11;;;;;;;2.45;2.25;;;;;;;;;;5116094;28;20031;-24
2022/11/14 02:25:38;;;;;;;2.33;2.13;;;;;;;;;;5116175;28;20058;-27
2022/11/14 02:28:05;;;;;;;3.45;2.55;;;;;;;;;;5115949;28;20023;-28
2022/11/14 02:30:31;;;;;;;2.10;1.95;;;;;;;;;;5115856;28;20092;-27
2022/11/14 02:32:57;;;;;;;2.58;2.35;;;;;;;;;;5116009;28;20031;-34
2022/11/14 02:35:23;;;;;;;3.05;2.70;;;;;;;;;;5115983;28;20037;-26
2022/11/14 02:37:50;;;;;;;3.03;2.47;;;;;;;;;;5115696;28;20088;-24
2022/11/14 02:40:16;;;;;;;2.42;2.22;;;;;;;;;;5115708;28;20458;-24
2022/11/14 02:42:42;;;;;;;2.33;2.10;;;;;;;;;;5114641;28;20340;-25
2022/11/14 02:45:09;;;;;;;2.50;2.30;;;;;;;;;;5115885;28;20038;-24
2022/11/14 02:47:35;;;;;;;2.47;1.98;;;;;;;;;;5115238;28;20108;-27
2022/11/14 02:50:01;;;;;;;2.00;1.80;;;;;;;;;;5115802;28;20023;-24
2022/11/14 02:52:27;;;;;;;3.13;2.55;;;;;;;;;;5115411;28;20027;-26
2022/11/14 02:54:53;;;;;;;2.97;2.17;;;;;;;;;;5115497;28;20187;-24
2022/11/14 02:57:19;;;;;;;2.33;2.13;;;;;;;;;;5115325;28;20032;-26
2022/11/14 02:59:45;;;;;;;2.50;2.30;;;;;;;;;;5115399;28;20358;-24
2022/11/14 03:02:13;;;;;;;2.63;2.42;;;;;;;;;;5115193;28;20023;-25
2022/11/14 03:04:39;;;;;;;4.03;2.35;;;;;;;;;;5115356;28;20358;-28
2022/11/14 03:07:05;;;;;;;2.90;2.58;;;;;;;;;;5114360;28;20084;-23
2022/11/14 03:09:31;;;;;;;2.50;2.22;;;;;;;;;;5114366;28;20401;-26
2022/11/14 03:11:57;;;;;;;2.22;1.90;;;;;;;;;;5115472;28;20386;-24
2022/11/14 03:14:23;;;;;;;2.65;2.33;;;;;;;;;;5114183;28;20114;-25
2022/11/14 03:16:50;;;;;;;2.70;2.00;;;;;;;;;;5114966;28;20124;-24
2022/11/14 03:19:16;;;;;;;3.05;2.40;;;;;;;;;;5115218;28;20027;-24
2022/11/14 03:21:43;;;;;;;2.85;2.38;;;;;;;;;;5115156;28;20347;-23
2022/11/14 03:24:09;;;;;;;3.35;3.05;;;;;;;;;;5115326;28;20020;-27
2022/11/14 03:26:35;;;;;;;2.28;2.03;;;;;;;;;;5115400;28;20081;-24
2022/11/14 03:29:01;;;;;;;2.60;2.15;;;;;;;;;;5115371;28;20342;-24
2022/11/14 03:31:27;;;;;;;2.55;2.35;;;;;;;;;;5114464;28;20043;-24
2022/11/14 03:33:53;;;;;;;2.40;2.20;;;;;;;;;;5115080;28;20040;-25
2022/11/14 03:36:20;;;;;;;2.85;2.33;;;;;;;;;;5115241;28;20082;-26
2022/11/14 03:38:46;;;;;;;3.20;2.90;;;;;;;;;;5114053;28;20020;-24
2022/11/14 03:41:12;;;;;;;2.65;2.45;;;;;;;;;;5114023;28;20484;-24
2022/11/14 03:43:39;;;;;;;2.72;2.35;;;;;;;;;;5114825;28;20016;-27
2022/11/14 03:46:05;;;;;;;3.08;2.40;;;;;;;;;;5114920;28;20032;-24
2022/11/14 03:48:31;;;;;;;2.55;2.35;;;;;;;;;;5114889;28;20084;-24
2022/11/14 03:50:58;;;;;;;2.72;2.42;;;;;;;;;;5114870;28;20035;-25
2022/11/14 03:53:25;;;;;;;3.03;2.50;;;;;;;;;;5114872;28;20024;-23
2022/11/14 03:55:51;;;;;;;3.22;2.47;;;;;;;;;;5114700;28;20032;-27
2022/11/14 03:58:18;;;;;;;2.75;2.50;;;;;;;;;;5115139;28;20027;-25
2022/11/14 04:00:44;;;;;;;2.60;2.40;;;;;;;;;;5117836;28;20450;-25
2022/11/14 04:03:10;;;;;;;3.65;2.90;;;;;;;;;;5118596;28;20030;-24
2022/11/14 04:05:36;;;;;;;2.72;2.50;;;;;;;;;;5118984;28;20102;-24
2022/11/14 04:08:06;;;;;;;3.72;3.42;;;;;;;;;;5118666;28;20335;-30
2022/11/14 04:10:32;;;;;;;2.60;2.40;;;;;;;;;;5118607;28;20039;-25
2022/11/14 04:12:58;;;;;;;2.63;2.42;;;;;;;;;;5118423;28;20023;-26
2022/11/14 04:15:24;;;;;;;2.45;2.25;;;;;;;;;;5118421;28;20070;-26
2022/11/14 04:17:51;;;;;;;3.15;2.83;;;;;;;;;;5117572;28;20026;-24
2022/11/14 04:20:17;;;;;;;2.85;2.55;;;;;;;;;;5118677;28;20042;-24
2022/11/14 04:22:43;;;;;;;2.35;2.13;;;;;;;;;;5118486;28;20057;-26
2022/11/14 04:25:09;;;;;;;2.72;2.53;;;;;;;;;;5117457;28;20028;-24
2022/11/14 04:27:35;;;;;;;3.35;2.85;;;;;;;;;;5118221;28;20469;-24
2022/11/14 04:30:01;;;;;;;2.63;2.42;;;;;;;;;;5118504;28;20023;-32
2022/11/14 04:32:28;;;;;;;3.13;2.38;;;;;;;;;;5118120;28;20046;-24
2022/11/14 04:34:54;;;;;;;2.08;1.98;;;;;;;;;;5118407;28;20028;-24
2022/11/14 04:37:20;;;;;;;2.47;2.22;;;;;;;;;;5118267;28;20024;-25
2022/11/14 04:39:46;;;;;;;2.50;2.17;;;;;;;;;;5117061;28;20099;-24
2022/11/14 04:42:12;;;;;;;2.70;2.38;;;;;;;;;;5118138;28;20096;-27
2022/11/14 04:44:38;;;;;;;2.72;2.40;;;;;;;;;;5117859;28;20020;-24
2022/11/14 04:47:04;;;;;;;3.35;2.78;;;;;;;;;;5117874;28;20073;-26
2022/11/14 04:49:31;;;;;;;2.88;2.67;;;;;;;;;;5117782;28;20034;-24
2022/11/14 04:51:57;;;;;;;2.85;2.58;;;;;;;;;;5116934;28;20032;-24
2022/11/14 04:54:23;;;;;;;2.60;2.40;;;;;;;;;;5117754;28;20024;-29
2022/11/14 04:56:49;;;;;;;2.28;2.08;;;;;;;;;;5117498;28;20066;-24
2022/11/14 04:59:15;;;;;;;3.10;2.70;;;;;;;;;;5116580;28;20043;-24
2022/11/14 05:01:41;;;;;;;2.88;2.58;;;;;;;;;;5117712;28;20031;-24
2022/11/14 05:04:08;;;;;;;2.53;2.33;;;;;;;;;;5117619;28;20047;-26
2022/11/14 05:06:34;;;;;;;2.65;2.30;;;;;;;;;;5117352;28;20031;-24
2022/11/14 05:09:00;;;;;;;3.45;3.15;;;;;;;;;;5117072;28;20099;-24
2022/11/14 05:11:26;;;;;;;2.60;2.40;;;;;;;;;;5116429;28;20485;-26
2022/11/14 05:13:52;;;;;;;3.53;3.17;;;;;;;;;;5117549;28;20019;-24
2022/11/14 05:16:18;;;;;;;2.67;2.47;;;;;;;;;;5115946;28;20040;-23
2022/11/14 05:18:44;;;;;;;2.60;2.40;;;;;;;;;;5116973;28;20072;-25
2022/11/14 05:21:13;;;;;;;2.53;2.33;;;;;;;;;;5116785;28;20028;-24
2022/11/14 05:23:39;;;;;;;2.50;2.20;;;;;;;;;;5116661;28;20180;-23
2022/11/14 05:26:07;;;;;;;2.40;2.20;;;;;;;;;;5115524;28;20031;-24
2022/11/14 05:28:33;;;;;;;2.40;2.20;;;;;;;;;;5116527;28;20027;-23
2022/11/14 05:31:01;;;;;;;7.60;4.22;;;;;;;;;;5116518;28;20354;-24
2022/11/14 05:33:27;;;;;;;2.72;2.47;;;;;;;;;;5115394;28;20110;-27
2022/11/14 05:35:53;;;;;;;3.40;3.03;;;;;;;;;;5116403;28;20038;-26
2022/11/14 05:38:19;;;;;;;4.38;2.88;;;;;;;;;;5116420;28;20020;-25
2022/11/14 05:40:45;;;;;;;3.95;2.50;;;;;;;;;;5116345;28;20043;-24
2022/11/14 05:43:11;;;;;;;4.57;3.13;;;;;;;;;;5116163;28;20446;-24
2022/11/14 05:45:37;;;;;;;3.03;2.72;;;;;;;;;;5116405;28;20449;-24
2022/11/14 05:48:04;;;;;;;3.72;2.47;;;;;;;;;;5116462;28;20028;-26
2022/11/14 05:50:30;;;;;;;4.53;2.60;;;;;;;;;;5116402;28;20042;-24
2022/11/14 05:52:56;;;;;;;3.17;2.60;;;;;;;;;;5115966;28;20035;-25
2022/11/14 05:55:22;;;;;;;3.78;2.72;;;;;;;;;;5115916;28;20023;-26
2022/11/14 05:57:48;;;;;;;2.75;2.28;;;;;;;;;;5116025;28;20024;-30
2022/11/14 06:03:17;;;;;;;2.70;2.40;;;;;;;;;;5399455;23;20108;-31
2022/11/14 06:05:43;;;;;;;8.63;2.63;;;;;;;;;;5015694;28;20040;-31
2022/11/14 06:08:09;;;;;;;3.35;2.08;;;;;;;;;;5015548;28;20022;-31
2022/11/14 06:10:35;;;;;;;3.63;2.78;;;;;;;;;;5016044;28;20037;-32
2022/11/14 06:13:01;;;;;;;3.13;2.83;;;;;;;;;;5015703;28;20112;-31
2022/11/14 06:15:27;;;;;;;3.15;2.55;;;;;;;;;;5015390;28;20034;-31
2022/11/14 06:17:54;;;;;;;6.75;2.88;;;;;;;;;;5015440;28;20041;-30
2022/11/14 06:20:20;;;;;;;8.18;4.05;;;;;;;;;;5015112;28;20022;-30
2022/11/14 06:22:46;;;;;;;3.85;2.83;;;;;;;;;;5015406;28;20057;-30
2022/11/14 06:25:12;;;;;;;5.10;2.80;;;;;;;;;;5015379;28;20368;-30
2022/11/14 06:27:39;;;;;;;6.10;2.70;;;;;;;;;;5015531;28;20032;-31
2022/11/14 06:30:05;;;;;;;3.67;2.78;;;;;;;;;;5015155;28;20033;-30
2022/11/14 06:32:31;;;;;;;3.97;2.88;;;;;;;;;;5015520;28;20030;-31
2022/11/14 06:34:58;;;;;;;3.15;2.80;;;;;;;;;;5015404;28;20368;-31
2022/11/14 06:37:24;;;;;;;4.75;2.80;;;;;;;;;;5015582;28;20034;-31
2022/11/14 06:39:50;;;;;;;5.40;3.20;;;;;;;;;;5015603;28;20057;-31
2022/11/14 06:42:16;;;;;;;5.88;3.28;;;;;;;;;;5015246;28;20030;-31
2022/11/14 06:44:42;;;;;;;5.47;3.30;;;;;;;;;;5014113;28;20139;-31
2022/11/14 06:47:08;;;;;;;5.90;3.33;;;;;;;;;;5013905;28;20041;-31
2022/11/14 06:49:34;;;;;;;9.98;3.72;;;;;;;;;;5014832;28;20030;-31
2022/11/14 06:52:01;;;;;;;7.43;3.40;;;;;;;;;;5015128;28;20030;-31
2022/11/14 06:54:27;;;;;;;12.55;4.28;;;;;;;;;;5014889;28;20128;-31
2022/11/14 06:56:53;;;;;;;6.50;4.07;;;;;;;;;;5015022;28;20034;-31
2022/11/14 06:59:19;;;;;;;8.55;3.30;;;;;;;;;;5014855;28;20061;-31
2022/11/14 07:01:45;;;;;;;6.72;2.90;;;;;;;;;;5014999;28;20346;-30
2022/11/14 07:04:11;;;;;;;11.88;3.10;;;;;;;;;;5014630;28;20349;-31
2022/11/14 07:06:38;;;;;;;11.23;3.95;;;;;;;;;;5014728;28;20030;-32
2022/11/14 07:09:04;;;;;;;11.55;3.20;;;;;;;;;;5015046;28;20364;-31
2022/11/14 07:11:30;;;;;;;6.70;3.17;;;;;;;;;;5014636;28;20448;-31
2022/11/14 07:13:58;;;;;;;7.53;2.80;;;;;;;;;;5014627;28;20041;-31
2022/11/14 07:16:28;;;;;;;10.85;3.13;;;;;;;;;;5014522;28;20092;-31
2022/11/14 07:18:55;;;;;;;6.40;3.10;;;;;;;;;;5013585;28;20040;-31
2022/11/14 07:21:21;;;;;;;8.00;3.15;;;;;;;;;;5014469;28;20026;-31
2022/11/14 07:23:47;;;;;;;6.90;3.25;;;;;;;;;;5014481;28;20014;-30
2022/11/14 07:26:14;;;;;;;6.70;3.10;;;;;;;;;;5014823;28;20374;-31
2022/11/14 07:28:41;;;;;;;7.30;3.13;;;;;;;;;;5014412;28;20088;-30
2022/11/14 07:31:08;;;;;;;8.05;3.17;;;;;;;;;;5014693;28;20344;-30
2022/11/14 07:33:34;;;;;;;8.50;3.10;;;;;;;;;;5017688;28;20038;-30
2022/11/14 07:36:01;;;;;;;7.22;3.35;;;;;;;;;;5018477;28;20037;-30
2022/11/14 07:38:27;;;;;;;9.88;3.65;;;;;;;;;;5017471;28;20456;-31
2022/11/14 07:40:57;;;;;;;9.43;3.33;;;;;;;;;;5019198;28;20026;-30
2022/11/14 07:43:23;;;;;;;19.25;5.63;;;;;;;;;;5018413;28;20033;-31
2022/11/14 07:45:49;;;;;;;8.38;3.47;;;;;;;;;;5018117;28;20457;-30
2022/11/14 07:48:16;;;;;;;6.80;2.75;;;;;;;;;;5018462;28;20360;-31
2022/11/14 07:50:42;;;;;;;11.15;3.15;;;;;;;;;;5018926;28;20109;-31
2022/11/14 07:53:08;;;;;;;9.20;3.55;;;;;;;;;;5018079;28;20030;-30
2022/11/14 07:55:38;;;;;;;7.28;3.20;;;;;;;;;;5018535;28;20091;-31
2022/11/14 07:58:04;;;;;;;8.02;3.88;;;;;;;;;;5018022;28;20487;-31
2022/11/14 08:00:31;;;;;;;8.00;3.20;;;;;;;;;;5018131;28;20091;-31
2022/11/14 08:02:57;;;;;;;7.82;3.33;;;;;;;;;;5017875;28;20050;-31
2022/11/14 08:05:23;;;;;;;8.45;3.15;;;;;;;;;;5017955;28;20033;-31
2022/11/14 08:07:52;;;;;;;8.65;3.53;;;;;;;;;;5018150;28;20032;-31
2022/11/14 08:10:19;;;;;;;10.95;3.75;;;;;;;;;;5018030;28;20030;-31
2022/11/14 08:12:46;;;;;;;9.63;3.38;;;;;;;;;;5017567;28;20038;-31
2022/11/14 08:15:13;;;;;;;12.35;3.90;;;;;;;;;;5017787;28;20033;-31
2022/11/14 08:17:39;;;;;;;10.55;3.70;;;;;;;;;;5018439;28;20053;-31
2022/11/14 08:20:06;;;;;;;7.53;3.35;;;;;;;;;;5017999;28;20310;-31
2022/11/14 08:22:32;;;;;;;7.68;3.03;;;;;;;;;;5017608;28;20042;-31
2022/11/14 08:24:59;;;;;;;10.57;3.90;;;;;;;;;;5017933;28;20034;-31
2022/11/14 08:27:25;;;;;;;25.92;5.45;;;;;;;;;;5017653;28;20104;-30
2022/11/14 08:29:51;;;;;;;11.73;2.90;;;;;;;;;;5017826;28;20032;-30
2022/11/14 08:32:18;;;;;;;15.25;4.22;;;;;;;;;;5017508;28;20392;-32
2022/11/14 08:34:44;;;;;;;10.02;3.33;;;;;;;;;;5017461;28;20092;-31
2022/11/14 08:37:10;;;;;;;12.13;5.03;;;;;;;;;;5017318;28;20116;-31
2022/11/14 08:39:36;;;;;;;12.15;3.15;;;;;;;;;;5017444;28;20022;-31
2022/11/14 08:42:02;;;;;;;13.13;3.97;;;;;;;;;;5016259;28;20041;-30
2022/11/14 08:44:29;;;;;;;12.20;3.60;;;;;;;;;;5016626;28;20449;-31
2022/11/14 08:46:55;;;;;;;5.43;3.33;;;;;;;;;;5017504;28;20030;-30
2022/11/14 08:49:22;;;;;;;12.30;3.40;;;;;;;;;;5017150;28;20030;-31
2022/11/14 08:51:48;;;;;;;12.40;3.58;;;;;;;;;;5017160;28;20360;-30
2022/11/14 08:54:14;;;;;;;7.35;3.40;;;;;;;;;;5017169;28;20033;-31
2022/11/14 08:56:40;;;;;;;10.95;4.20;;;;;;;;;;5017037;28;20029;-30
2022/11/14 08:59:06;;;;;;;13.90;3.80;;;;;;;;;;5017425;28;20022;-31
2022/11/14 09:01:32;;;;;;;9.77;4.00;;;;;;;;;;5017051;28;20407;-30
2022/11/14 09:03:59;;;;;;;12.77;3.60;;;;;;;;;;5016820;28;20056;-30
2022/11/14 09:06:25;;;;;;;13.00;4.47;;;;;;;;;;5016982;28;20117;-30
2022/11/14 09:08:51;;;;;;;9.95;3.53;;;;;;;;;;5016903;28;20040;-30
2022/11/14 09:11:18;;;;;;;14.07;4.13;;;;;;;;;;5015800;28;20505;-30
2022/11/14 09:13:44;;;;;;;12.43;3.90;;;;;;;;;;5016625;28;20041;-31
2022/11/14 09:16:10;;;;;;;13.10;4.20;;;;;;;;;;5016648;28;20034;-31
2022/11/14 09:18:37;;;;;;;12.48;3.90;;;;;;;;;;5016601;28;20064;-31
2022/11/14 09:21:07;;;;;;;12.60;3.80;;;;;;;;;;5016832;28;20097;-31
2022/11/14 09:23:33;;;;;;;16.37;3.60;;;;;;;;;;5016521;28;20462;-31
2022/11/14 09:26:03;;;;;;;19.00;4.03;;;;;;;;;;5016524;28;20026;-31
2022/11/14 09:28:29;;;;;;;14.35;4.65;;;;;;;;;;5016331;28;20037;-30
2022/11/14 09:30:59;;;;;;;14.65;3.65;;;;;;;;;;5016671;28;20026;-31
2022/11/14 09:33:26;;;;;;;19.50;4.53;;;;;;;;;;5016276;28;20103;-31
2022/11/14 09:36:02;;;;;;;10.27;3.65;;;;;;;;;;5016255;28;20025;-31
2022/11/14 09:38:28;;;;;;;10.52;3.47;;;;;;;;;;5016392;28;20078;-31
2022/11/14 09:41:02;;;;;;;14.30;5.13;;;;;;;;;;5016532;28;20109;-31
2022/11/14 09:43:35;;;;;;;16.25;4.43;;;;;;;;;;5015982;28;20026;-31
2022/11/14 09:46:02;;;;;;;15.43;4.03;;;;;;;;;;5016738;28;20021;-30
2022/11/14 09:48:29;;;;;;;9.77;4.80;;;;;;;;;;5016039;28;20105;-30
2022/11/14 09:51:09;;;;;;;15.32;4.15;;;;;;;;;;5016313;28;20030;-30
2022/11/14 09:53:41;;;;;;;19.02;4.45;;;;;;;;;;5016197;28;20034;-30
2022/11/14 09:56:10;;;;;;;8.95;3.83;;;;;;;;;;5014775;28;20025;-30
2022/11/14 09:58:36;;;;;;;13.45;3.90;;;;;;;;;;5016277;28;20328;-31
2022/11/14 10:01:05;;;;;;;20.55;6.05;;;;;;;;;;5016146;28;20352;-32
2022/11/14 10:03:51;;;;;;;14.05;3.40;;;;;;;;;;5015530;28;20077;-31
2022/11/14 10:06:22;;;;;;;21.05;4.82;;;;;;;;;;5016483;28;20121;-31
2022/11/14 10:09:00;;;;;;;21.25;4.35;;;;;;;;;;5015647;28;20053;-31
2022/11/14 10:11:35;;;;;;;14.63;5.80;;;;;;;;;;5015833;28;20041;-31
2022/11/14 10:14:20;;;;;;;13.68;3.90;;;;;;;;;;5014624;28;20045;-30
2022/11/14 10:16:46;;;;;;;9.75;3.58;;;;;;;;;;5015472;28;20038;-30
2022/11/14 10:19:23;;;;;;;9.82;3.85;;;;;;;;;;5015417;28;20052;-31
2022/11/14 10:22:09;;;;;;;19.90;5.32;;;;;;;;;;5015353;28;20117;-32
2022/11/14 10:24:41;;;;;;;8.25;3.85;;;;;;;;;;4975497;28;20061;-31
2022/11/14 10:27:13;;;;;;;13.35;4.30;;;;;;;;;;5015352;28;20030;-31
2022/11/14 10:29:39;;;;;;;14.38;4.25;;;;;;;;;;5015296;28;20036;-31
2022/11/14 10:32:24;;;;;;;14.32;4.03;;;;;;;;;;5015172;28;20412;-31
2022/11/14 10:34:53;;;;;;;12.70;4.30;;;;;;;;;;5015108;28;20025;-31
2022/11/14 10:37:26;;;;;;;17.00;4.55;;;;;;;;;;5015377;28;20026;-32
2022/11/14 10:40:01;;;;;;;8.25;3.03;;;;;;;;;;5015465;28;20026;-31
2022/11/14 10:42:39;;;;;;;12.38;3.75;;;;;;;;;;5014129;28;20050;-32
2022/11/14 10:45:17;;;;;;;8.50;4.55;;;;;;;;;;5015267;28;20342;-31
2022/11/14 10:47:46;;;;;;;15.32;4.22;;;;;;;;;;5015042;28;20033;-31
2022/11/14 10:50:24;;;;;;;8.45;3.63;;;;;;;;;;5014944;28;20033;-30
2022/11/14 10:52:54;;;;;;;6.03;3.55;;;;;;;;;;5014873;28;20038;-31
2022/11/14 10:55:21;;;;;;;13.52;3.83;;;;;;;;;;5014961;28;20088;-31
2022/11/14 10:57:47;;;;;;;9.20;4.22;;;;;;;;;;5014887;28;20414;-32
2022/11/14 11:00:18;;;;;;;11.85;4.00;;;;;;;;;;5014671;28;20060;-33
2022/11/14 11:02:49;;;;;;;5.88;3.75;;;;;;;;;;5014483;28;20050;-31
2022/11/14 11:05:16;;;;;;;7.35;3.13;;;;;;;;;;5014691;28;20053;-31
2022/11/14 11:13:29;;;;;;;7.63;3.85;;;;;;;;;;5015053;28;20508;-30
2022/11/14 11:15:57;;;;;;;20.20;4.07;;;;;;;;;;5014622;28;20487;-30
2022/11/14 11:18:32;;;;;;;11.15;4.18;;;;;;;;;;5013717;28;20049;-31
2022/11/14 11:21:02;;;;;;;11.48;3.83;;;;;;;;;;5014895;28;20034;-32
2022/11/14 11:23:28;;;;;;;18.27;4.30;;;;;;;;;;5015147;28;20121;-32
2022/11/14 11:26:04;;;;;;;9.88;3.55;;;;;;;;;;5014804;28;20121;-30
2022/11/14 11:28:32;;;;;;;9.25;4.05;;;;;;;;;;5014391;28;20065;-31
2022/11/14 11:31:00;;;;;;;11.98;4.30;;;;;;;;;;5014643;28;20472;-31
2022/11/14 11:33:31;;;;;;;14.85;4.13;;;;;;;;;;5013426;28;20433;-31
2022/11/14 11:36:00;;;;;;;7.78;3.85;;;;;;;;;;5014439;28;20061;-31
2022/11/14 11:38:27;;;;;;;9.50;4.55;;;;;;;;;;5014531;28;20018;-32
2022/11/14 11:40:56;;;;;;;13.63;4.38;;;;;;;;;;5014722;28;20456;-31
2022/11/14 11:43:25;;;;;;;11.55;3.90;;;;;;;;;;5014340;28;20026;-32
2022/11/14 11:45:52;;;;;;;11.35;3.53;;;;;;;;;;5015263;28;20058;-32
2022/11/14 11:48:18;;;;;;;14.60;3.80;;;;;;;;;;5014538;28;20125;-32
2022/11/14 11:50:45;;;;;;;14.25;4.75;;;;;;;;;;5014616;28;20037;-31
2022/11/14 11:53:31;;;;;;;17.00;4.00;;;;;;;;;;5014293;28;20483;-32
2022/11/14 11:56:10;;;;;;;27.17;6.18;;;;;;;;;;5014807;28;20026;-31
2022/11/14 11:58:45;;;;;;;13.05;4.80;;;;;;;;;;5014670;28;20109;-32
2022/11/14 12:01:12;;;;;;;18.85;4.07;;;;;;;;;;5014287;28;20026;-31
2022/11/14 12:03:38;;;;;;;14.73;5.15;;;;;;;;;;5014088;28;20065;-30
2022/11/14 12:06:05;;;;;;;10.35;4.15;;;;;;;;;;5014300;28;20040;-32
2022/11/14 12:08:37;;;;;;;13.45;4.50;;;;;;;;;;5014310;28;20066;-31
2022/11/14 12:11:04;;;;;;;18.35;4.78;;;;;;;;;;5014043;28;20022;-32
2022/11/14 12:13:46;;;;;;;15.63;4.63;;;;;;;;;;5014328;28;20455;-32
2022/11/14 12:16:18;;;;;;;14.05;3.97;;;;;;;;;;5013930;28;20467;-31
2022/11/14 12:18:54;;;;;;;23.00;4.35;;;;;;;;;;5014643;28;20476;-32
2022/11/14 12:21:40;;;;;;;11.20;3.85;;;;;;;;;;5018062;28;20468;-31
2022/11/14 12:24:12;;;;;;;11.88;4.47;;;;;;;;;;5017848;28;20033;-31
2022/11/14 12:26:57;;;;;;;10.68;5.72;;;;;;;;;;5016700;28;20041;-32
2022/11/14 12:29:23;;;;;;;12.25;4.35;;;;;;;;;;5017323;28;20480;-32
2022/11/14 12:31:53;;;;;;;14.55;3.85;;;;;;;;;;5017686;28;20041;-31
2022/11/14 12:34:27;;;;;;;12.32;4.45;;;;;;;;;;5017412;28;20026;-32
2022/11/14 12:36:53;;;;;;;15.77;3.50;;;;;;;;;;5017741;28;20092;-31
2022/11/14 12:39:29;;;;;;;23.75;3.85;;;;;;;;;;5017709;28;20287;-32
2022/11/14 12:42:06;;;;;;;10.52;4.45;;;;;;;;;;5017287;28;20026;-32
2022/11/14 12:44:34;;;;;;;11.15;3.15;;;;;;;;;;5017687;28;20388;-30
2022/11/14 12:47:03;;;;;;;15.63;4.38;;;;;;;;;;5017235;28;20030;-31
2022/11/14 12:49:47;;;;;;;18.73;4.20;;;;;;;;;;5017283;28;20054;-32
2022/11/14 12:52:32;;;;;;;11.57;4.38;;;;;;;;;;5017114;28;20030;-31
2022/11/14 12:54:58;;;;;;;17.13;3.97;;;;;;;;;;5017114;28;20040;-31
2022/11/14 12:57:46;;;;;;;7.32;4.07;;;;;;;;;;5016952;28;20091;-31
2022/11/14 13:00:12;;;;;;;16.45;5.57;;;;;;;;;;5017547;28;20038;-31
2022/11/14 13:02:48;;;;;;;12.55;4.68;;;;;;;;;;5016672;28;20053;-32
2022/11/14 13:05:14;;;;;;;18.50;6.28;;;;;;;;;;5016024;28;20083;-30
2022/11/14 13:07:52;;;;;;;15.57;4.50;;;;;;;;;;5016923;28;20426;-30
2022/11/14 13:10:38;;;;;;;16.63;5.43;;;;;;;;;;5016682;28;20041;-30
2022/11/14 13:21:46;;;;;;;18.05;4.85;;;;;;;;;;5017125;28;20049;-32
2022/11/14 13:24:16;;;;;;;17.15;5.65;;;;;;;;;;5015599;28;20133;-31
2022/11/14 13:26:46;;;;;;;17.10;4.70;;;;;;;;;;5016810;28;20048;-30
2022/11/14 13:29:31;;;;;;;14.25;4.63;;;;;;;;;;5015493;28;20037;-31
2022/11/14 13:31:57;;;;;;;19.95;4.63;;;;;;;;;;5016460;28;20062;-30
2022/11/14 13:34:42;;;;;;;19.50;4.65;;;;;;;;;;5016700;28;20352;-31
2022/11/14 13:37:28;;;;;;;22.52;5.30;;;;;;;;;;5016347;28;20030;-31
2022/11/14 13:40:26;;;;;;;14.50;4.00;;;;;;;;;;4976924;28;20042;-32
2022/11/14 13:42:52;;;;;;;19.88;6.20;;;;;;;;;;4973357;28;20513;-31
2022/11/14 13:45:41;;;;;;;18.25;6.18;;;;;;;;;;5016131;28;20073;-31
2022/11/14 13:48:26;;;;;;;23.27;6.47;;;;;;;;;;5016027;28;20030;-31
2022/11/14 13:50:56;;;;;;;23.20;4.85;;;;;;;;;;5016027;28;20037;-32
2022/11/14 13:53:24;;;;;;;16.70;4.32;;;;;;;;;;5015768;28;20025;-31
2022/11/14 13:55:55;;;;;;;25.88;4.10;;;;;;;;;;5016031;28;20040;-31
2022/11/14 13:58:24;;;;;;;14.68;4.55;;;;;;;;;;5016110;28;20456;-31
2022/11/14 14:00:56;;;;;;;21.45;5.05;;;;;;;;;;5015787;28;20075;-31
2022/11/14 14:03:32;;;;;;;22.35;4.57;;;;;;;;;;5015759;28;20053;-32
2022/11/14 14:06:27;;;;;;;18.70;5.32;;;;;;;;;;5015989;28;20052;-31
2022/11/14 14:09:02;;;;;;;19.70;5.88;;;;;;;;;;4946718;28;20118;-33
2022/11/14 14:11:39;;;;;;;12.20;4.00;;;;;;;;;;5015864;28;20029;-30
2022/11/14 14:14:14;;;;;;;25.65;4.45;;;;;;;;;;5015495;28;20037;-31
2022/11/14 14:16:58;;;;;;;18.35;4.22;;;;;;;;;;5015410;28;20030;-32
2022/11/14 14:19:43;;;;;;;20.77;5.38;;;;;;;;;;5015706;28;20056;-31
2022/11/14 14:22:27;;;;;;;17.30;4.88;;;;;;;;;;5015861;28;20087;-32
2022/11/14 14:24:54;;;;;;;15.07;4.90;;;;;;;;;;5015483;28;20030;-32
2022/11/14 14:27:28;;;;;;;22.60;4.78;;;;;;;;;;5015623;28;20459;-31
2022/11/14 14:30:02;;;;;;;16.25;4.05;;;;;;;;;;5015917;28;20107;-31
2022/11/14 14:32:28;;;;;;;13.82;4.57;;;;;;;;;;5015500;28;20032;-30
2022/11/14 14:34:57;;;;;;;12.90;4.80;;;;;;;;;;5015511;28;20362;-31
2022/11/14 14:37:27;;;;;;;17.60;4.53;;;;;;;;;;5015440;28;20053;-30
2022/11/14 14:39:57;;;;;;;18.27;4.67;;;;;;;;;;5015791;28;20076;-30
2022/11/14 14:42:24;;;;;;;27.37;6.43;;;;;;;;;;5014491;28;20256;-31
2022/11/14 14:44:51;;;;;;;16.42;5.28;;;;;;;;;;5015082;28;20037;-31
2022/11/14 14:47:27;;;;;;;9.93;4.18;;;;;;;;;;5015013;28;20100;-30
2022/11/14 14:49:53;;;;;;;18.05;3.85;;;;;;;;;;5015262;28;20034;-30
2022/11/14 14:52:25;;;;;;;17.52;5.22;;;;;;;;;;5015146;28;20044;-41
2022/11/14 14:54:55;;;;;;;14.48;4.82;;;;;;;;;;5014952;28;20030;-29
2022/11/14 14:57:21;;;;;;;18.08;4.25;;;;;;;;;;5015458;28;20026;-30
2022/11/14 14:59:58;;;;;;;13.45;5.97;;;;;;;;;;5014944;28;20034;-31
2022/11/14 15:02:25;;;;;;;13.98;4.65;;;;;;;;;;5014715;28;20465;-30
2022/11/14 15:04:51;;;;;;;12.60;4.68;;;;;;;;;;5015249;28;20361;-32